createdAt,value
2023-09-23T00:01:51.484Z,97393.25
2023-09-23T00:04:20.203Z,97398.63
2023-09-23T00:06:50.819Z,97386.31
2023-09-23T00:09:20.008Z,97394.50
2023-09-23T00:11:48.281Z,97393.56
2023-09-23T00:14:17.066Z,97405.72
2023-09-23T00:16:48.345Z,97404.63
2023-09-23T00:19:17.064Z,97398.28
2023-09-23T00:21:45.413Z,97393.09
2023-09-23T00:24:14.977Z,97403.06
2023-09-23T00:26:43.435Z,97390.44
2023-09-23T00:29:12.728Z,97393.94
2023-09-23T00:31:41.637Z,97391.06
2023-09-23T00:34:11.564Z,97393.03
2023-09-23T00:36:39.843Z,97396.19
2023-09-23T00:39:11.123Z,97396.97
2023-09-23T00:41:39.355Z,97402.91
2023-09-23T00:44:08.230Z,97399.75
2023-09-23T00:46:37.735Z,97410.53
2023-09-23T00:49:09.306Z,97421.38
2023-09-23T00:51:39.201Z,97422.41
2023-09-23T00:54:15.129Z,97419.50
2023-09-23T00:56:43.549Z,97421.59
2023-09-23T00:59:12.442Z,97424.50
2023-09-23T01:01:42.783Z,97418.88
2023-09-23T01:04:15.758Z,97426.63
2023-09-23T01:06:45.526Z,97425.38
2023-09-23T01:09:22.224Z,97433.75
2023-09-23T01:11:51.992Z,97433.94
2023-09-23T01:14:22.662Z,97440.09
2023-09-23T01:16:51.105Z,97422.69
2023-09-23T01:19:19.961Z,97418.16
2023-09-23T01:21:50.834Z,97422.97
2023-09-23T01:24:21.062Z,97427.16
2023-09-23T01:26:52.810Z,97433.44
2023-09-23T01:29:23.584Z,97429.47
2023-09-23T01:32:08.178Z,97443.97
2023-09-23T01:34:36.595Z,97428.72
2023-09-23T01:37:06.213Z,97443.81
2023-09-23T01:39:40.432Z,97440.31
2023-09-23T01:42:08.940Z,97440.38
2023-09-23T01:44:37.798Z,97459.38
2023-09-23T01:47:06.072Z,97452.66
2023-09-23T01:49:35.109Z,97453.72
2023-09-23T01:52:03.971Z,97445.31
2023-09-23T01:54:32.981Z,97448.03
2023-09-23T01:57:04.098Z,97453.09
2023-09-23T01:59:33.611Z,97457.66
2023-09-23T02:02:04.880Z,97463.34
2023-09-23T02:04:35.025Z,97469.63
2023-09-23T02:07:03.525Z,97472.81
2023-09-23T02:09:32.703Z,97484.53
2023-09-23T02:12:02.511Z,97482.09
2023-09-23T02:14:31.304Z,97484.09
2023-09-23T02:16:59.835Z,97467.56
2023-09-23T02:19:28.997Z,97478.84
2023-09-23T02:21:57.218Z,97477.84
2023-09-23T02:24:25.803Z,97477.72
2023-09-23T02:26:54.534Z,97471.16
2023-09-23T02:29:24.419Z,97475.44
2023-09-23T02:31:52.720Z,97475.56
2023-09-23T02:34:21.678Z,97496.78
2023-09-23T02:36:52.201Z,97487.88
2023-09-23T02:39:21.857Z,97476.19
2023-09-23T02:41:50.972Z,97470.63
2023-09-23T02:44:21.192Z,97473.25
2023-09-23T02:46:53.762Z,97485.31
2023-09-23T02:49:22.490Z,97480.69
2023-09-23T02:51:51.080Z,97498.19
2023-09-23T02:54:20.071Z,97497.19
2023-09-23T02:56:49.176Z,97515.16
2023-09-23T02:59:23.018Z,97519.66
2023-09-23T03:01:54.861Z,97524.88
2023-09-23T03:04:25.157Z,97522.91
2023-09-23T03:06:57.660Z,97519.97
2023-09-23T03:09:27.565Z,97526.88
2023-09-23T03:11:57.167Z,97533.41
2023-09-23T03:14:29.506Z,97526.28
2023-09-23T03:17:00.908Z,97519.78
2023-09-23T03:19:30.145Z,97523.94
2023-09-23T03:21:58.389Z,97535.06
2023-09-23T03:24:27.537Z,97535.97
2023-09-23T03:26:56.730Z,97541.63
2023-09-23T03:29:26.377Z,97544.56
2023-09-23T03:31:54.743Z,97553.09
2023-09-23T03:34:24.899Z,97559.34
2023-09-23T03:36:54.905Z,97568.47
2023-09-23T03:39:23.971Z,97577.06
2023-09-23T03:41:52.210Z,97571.00
2023-09-23T03:44:20.849Z,97576.66
2023-09-23T03:46:49.409Z,97574.25
2023-09-23T03:49:19.089Z,97579.19
2023-09-23T03:51:48.753Z,97577.38
2023-09-23T03:54:18.933Z,97580.72
2023-09-23T03:56:47.635Z,97591.44
2023-09-23T03:59:16.142Z,97580.50
2023-09-23T04:01:45.427Z,97583.25
2023-09-23T04:04:14.021Z,97583.75
2023-09-23T04:06:42.160Z,97590.13
2023-09-23T04:09:14.370Z,97578.88
2023-09-23T04:11:42.634Z,97588.63
2023-09-23T04:14:11.134Z,97581.91
2023-09-23T04:16:39.485Z,97585.50
2023-09-23T04:19:08.842Z,97575.88
2023-09-23T04:21:37.215Z,97582.97
2023-09-23T04:24:08.433Z,97580.75
2023-09-23T04:26:38.122Z,97579.41
2023-09-23T04:29:07.350Z,97572.53
2023-09-23T04:31:35.644Z,97567.44
2023-09-23T04:34:04.225Z,97582.13
2023-09-23T04:36:32.916Z,97579.69
2023-09-23T04:39:01.394Z,97587.66
2023-09-23T04:41:29.785Z,97585.25
2023-09-23T04:43:59.798Z,97578.81
2023-09-23T04:46:33.723Z,97593.03
2023-09-23T04:49:02.604Z,97588.19
2023-09-23T04:51:30.984Z,97598.88
2023-09-23T04:53:59.463Z,97597.41
2023-09-23T04:56:27.690Z,97599.72
2023-09-23T04:59:00.025Z,97604.22
2023-09-23T05:01:30.140Z,97612.41
2023-09-23T05:04:01.068Z,97633.78
2023-09-23T05:06:29.374Z,97640.00
2023-09-23T05:09:00.025Z,97634.31
2023-09-23T05:11:28.394Z,97638.72
2023-09-23T05:13:56.989Z,97646.16
2023-09-23T05:16:25.437Z,97643.34
2023-09-23T05:18:55.484Z,97652.31
2023-09-23T05:21:23.893Z,97655.78
2023-09-23T05:23:52.523Z,97662.31
2023-09-23T05:26:21.082Z,97658.34
2023-09-23T05:28:50.206Z,97655.31
2023-09-23T05:31:19.079Z,97651.00
2023-09-23T05:33:47.512Z,97650.06
2023-09-23T05:36:17.519Z,97647.38
2023-09-23T05:38:46.189Z,97653.63
2023-09-23T05:41:14.675Z,97655.50
2023-09-23T05:43:43.210Z,97663.91
2023-09-23T05:46:13.010Z,97676.19
2023-09-23T05:48:42.258Z,97670.56
2023-09-23T05:51:10.403Z,97672.22
2023-09-23T05:53:40.374Z,97671.28
2023-09-23T05:56:08.654Z,97679.03
2023-09-23T05:58:37.463Z,97682.34
2023-09-23T06:01:06.594Z,97692.44
2023-09-23T06:03:35.253Z,97685.19
2023-09-23T06:06:03.999Z,97687.50
2023-09-23T06:08:32.472Z,97694.19
2023-09-23T06:11:06.293Z,97689.59
2023-09-23T06:13:35.469Z,97694.09
2023-09-23T06:16:04.924Z,97702.09
2023-09-23T06:18:34.409Z,97699.13
2023-09-23T06:21:03.392Z,97698.81
2023-09-23T06:23:32.128Z,97706.22
2023-09-23T06:26:03.641Z,97721.19
2023-09-23T06:28:34.796Z,97726.63
2023-09-23T06:31:04.202Z,97737.84
2023-09-23T06:33:32.752Z,97744.22
2023-09-23T06:36:04.382Z,97745.72
2023-09-23T06:38:33.066Z,97742.44
2023-09-23T06:41:01.429Z,97744.13
2023-09-23T06:43:30.175Z,97752.53
2023-09-23T06:46:00.686Z,97753.13
2023-09-23T06:48:29.975Z,97755.94
2023-09-23T06:51:01.964Z,97757.72
2023-09-23T06:53:31.256Z,97759.03
2023-09-23T06:56:00.116Z,97754.41
2023-09-23T06:58:28.600Z,97757.81
2023-09-23T07:00:56.960Z,97774.97
2023-09-23T07:03:27.984Z,97790.25
2023-09-23T07:05:56.447Z,97793.44
2023-09-23T07:08:25.099Z,97795.03
2023-09-23T07:10:53.330Z,97796.91
2023-09-23T07:13:21.859Z,97796.59
2023-09-23T07:15:50.059Z,97798.13
2023-09-23T07:18:18.906Z,97799.69
2023-09-23T07:20:49.026Z,97795.78
2023-09-23T07:23:17.726Z,97804.56
2023-09-23T07:25:46.931Z,97811.72
2023-09-23T07:28:15.450Z,97816.94
2023-09-23T07:30:43.785Z,97827.97
2023-09-23T07:33:12.345Z,97831.38
2023-09-23T07:35:40.545Z,97820.16
2023-09-23T07:38:10.650Z,97824.22
2023-09-23T07:40:40.696Z,97827.94
2023-09-23T07:43:09.610Z,97823.28
2023-09-23T07:45:38.007Z,97821.69
2023-09-23T07:48:08.978Z,97821.81
2023-09-23T07:50:37.314Z,97818.78
2023-09-23T07:53:06.298Z,97822.97
2023-09-23T07:55:36.178Z,97830.41
2023-09-23T07:58:05.312Z,97824.94
2023-09-23T08:00:33.568Z,97830.22
2023-09-23T08:03:02.196Z,97841.25
2023-09-23T08:05:31.100Z,97850.72
2023-09-23T08:08:01.346Z,97845.09
2023-09-23T08:10:29.724Z,97841.41
2023-09-23T08:12:59.723Z,97834.28
2023-09-23T08:15:28.081Z,97849.78
2023-09-23T08:17:56.842Z,97855.53
2023-09-23T08:20:27.561Z,97869.88
2023-09-23T08:22:59.064Z,97881.09
2023-09-23T08:25:27.956Z,97889.06
2023-09-23T08:27:56.472Z,97897.25
2023-09-23T08:30:26.312Z,97881.31
2023-09-23T08:32:56.592Z,97884.00
2023-09-23T08:35:25.012Z,97881.31
2023-09-23T08:37:53.865Z,97887.22
2023-09-23T08:40:22.464Z,97884.66
2023-09-23T08:42:53.764Z,97885.03
2023-09-23T08:45:28.599Z,97896.44
2023-09-23T08:47:57.290Z,97898.38
2023-09-23T08:50:26.362Z,97893.16
2023-09-23T08:52:55.747Z,97884.59
2023-09-23T08:55:26.048Z,97892.72
2023-09-23T08:57:55.816Z,97899.47
2023-09-23T09:00:26.652Z,97907.75
2023-09-23T09:02:55.429Z,97902.66
2023-09-23T09:05:25.067Z,97906.53
2023-09-23T09:07:53.801Z,97905.78
2023-09-23T09:10:22.523Z,97905.84
2023-09-23T09:12:51.131Z,97912.78
2023-09-23T09:15:20.199Z,97911.41
2023-09-23T09:17:50.646Z,97889.13
2023-09-23T09:20:19.470Z,97882.00
2023-09-23T09:22:48.382Z,97880.28
2023-09-23T09:25:16.659Z,97895.06
2023-09-23T09:27:45.390Z,97892.25
2023-09-23T09:30:14.759Z,97884.84
2023-09-23T09:32:45.358Z,97882.59
2023-09-23T09:35:16.692Z,97896.09
2023-09-23T09:37:46.331Z,97889.56
2023-09-23T09:40:18.374Z,97881.75
2023-09-23T09:42:52.630Z,97870.75
2023-09-23T09:45:22.568Z,97882.47
2023-09-23T09:47:52.759Z,97887.81
2023-09-23T09:50:24.589Z,97889.81
2023-09-23T09:52:53.196Z,97898.16
2023-09-23T09:55:26.267Z,97897.09
2023-09-23T09:57:55.980Z,97882.91
2023-09-23T10:00:29.212Z,97887.34
2023-09-23T10:03:07.194Z,97887.78
2023-09-23T10:05:43.895Z,97880.53
2023-09-23T10:08:14.993Z,97877.03
2023-09-23T10:10:47.753Z,97875.09
2023-09-23T10:13:17.013Z,97880.19
2023-09-23T10:15:45.434Z,97865.75
2023-09-23T10:18:15.750Z,97868.41
2023-09-23T10:20:50.658Z,97876.44
2023-09-23T10:23:20.936Z,97881.50
2023-09-23T10:25:52.694Z,97872.13
2023-09-23T10:28:24.563Z,97884.13
2023-09-23T10:31:00.564Z,97883.63
2023-09-23T10:33:31.363Z,97883.88
2023-09-23T10:36:01.439Z,97888.28
2023-09-23T10:38:32.732Z,97892.63
2023-09-23T10:41:00.949Z,97905.91
2023-09-23T10:43:30.487Z,97912.53
2023-09-23T10:46:02.857Z,97915.88
2023-09-23T10:48:32.732Z,97928.06
2023-09-23T10:51:02.924Z,97939.00
2023-09-23T10:53:32.050Z,97937.81
2023-09-23T10:56:03.200Z,97939.44
2023-09-23T10:58:32.799Z,97937.91
2023-09-23T11:01:01.003Z,97933.47
2023-09-23T11:03:31.021Z,97943.22
2023-09-23T11:05:59.479Z,97947.13
2023-09-23T11:08:29.661Z,97943.16
2023-09-23T11:10:59.896Z,97950.56
2023-09-23T11:13:28.772Z,97946.56
2023-09-23T11:15:57.954Z,97940.75
2023-09-23T11:18:29.632Z,97945.25
2023-09-23T11:20:58.188Z,97946.34
2023-09-23T11:23:31.265Z,97949.81
2023-09-23T11:26:01.770Z,97938.66
2023-09-23T11:28:30.247Z,97934.44
2023-09-23T11:30:59.217Z,97922.03
2023-09-23T11:33:28.278Z,97926.53
2023-09-23T11:35:58.634Z,97939.97
2023-09-23T11:38:27.441Z,97928.34
2023-09-23T11:40:58.045Z,97935.84
2023-09-23T11:43:27.513Z,97923.50
2023-09-23T11:45:55.913Z,97921.28
2023-09-23T11:48:24.613Z,97924.06
2023-09-23T11:50:53.050Z,97923.94
2023-09-23T11:53:21.678Z,97930.88
2023-09-23T11:55:50.654Z,97914.16
2023-09-23T11:58:20.959Z,97927.00
2023-09-23T12:00:50.127Z,97930.75
2023-09-23T12:03:19.301Z,97936.44
2023-09-23T12:05:50.616Z,97926.47
2023-09-23T12:08:20.785Z,97937.16
2023-09-23T12:10:49.273Z,97941.72
2023-09-23T12:13:19.868Z,97948.66
2023-09-23T12:15:49.381Z,97949.28
2023-09-23T12:18:18.060Z,97946.19
2023-09-23T12:20:46.565Z,97938.47
2023-09-23T12:23:17.199Z,97949.19
2023-09-23T12:25:45.434Z,97946.16
2023-09-23T12:28:13.954Z,97951.84
2023-09-23T12:30:42.465Z,97957.31
2023-09-23T12:33:13.710Z,97967.91
2023-09-23T12:35:42.026Z,97964.47
2023-09-23T12:38:12.054Z,97971.81
2023-09-23T12:40:40.444Z,97964.84
2023-09-23T12:43:09.060Z,97977.72
2023-09-23T12:45:38.121Z,97982.22
2023-09-23T12:48:07.557Z,97986.91
2023-09-23T12:50:37.423Z,97994.19
2023-09-23T12:53:06.384Z,97988.47
2023-09-23T12:55:34.836Z,97986.78
2023-09-23T12:58:03.393Z,97995.69
2023-09-23T13:00:31.847Z,97993.81
2023-09-23T13:03:00.847Z,97996.50
2023-09-23T13:05:29.287Z,97991.88
2023-09-23T13:07:59.292Z,97987.34
2023-09-23T13:10:27.512Z,97999.25
2023-09-23T13:12:55.958Z,98014.25
2023-09-23T13:15:24.271Z,98000.94
2023-09-23T13:17:52.818Z,98009.19
2023-09-23T13:20:21.309Z,98015.16
2023-09-23T13:22:49.915Z,98016.50
2023-09-23T13:25:19.689Z,98021.81
2023-09-23T13:27:48.566Z,98026.81
2023-09-23T13:30:17.186Z,98020.59
2023-09-23T13:32:45.893Z,98025.28
2023-09-23T13:35:14.476Z,98022.69
2023-09-23T13:37:44.376Z,98024.34
2023-09-23T13:40:13.237Z,98022.00
2023-09-23T13:42:43.462Z,98034.25
2023-09-23T13:45:12.606Z,98032.38
2023-09-23T13:47:43.529Z,98040.81
2023-09-23T13:50:11.991Z,98043.06
2023-09-23T13:52:40.556Z,98045.53
2023-09-23T13:55:10.581Z,98050.28
2023-09-23T13:57:39.132Z,98055.66
2023-09-23T14:00:10.299Z,98055.47
2023-09-23T14:02:40.462Z,98062.63
2023-09-23T14:05:11.150Z,98052.88
2023-09-23T14:07:40.099Z,98056.44
2023-09-23T14:10:20.613Z,98061.38
2023-09-23T14:12:50.298Z,98060.50
2023-09-23T14:15:20.408Z,98070.97
2023-09-23T14:17:49.543Z,98081.47
2023-09-23T14:20:18.223Z,98083.38
2023-09-23T14:22:49.696Z,98081.97
2023-09-23T14:25:19.598Z,98084.81
2023-09-23T14:27:48.250Z,98085.50
2023-09-23T14:30:16.488Z,98078.31
2023-09-23T14:32:46.568Z,98074.75
2023-09-23T14:35:14.907Z,98081.72
2023-09-23T14:37:45.561Z,98079.91
2023-09-23T14:40:14.505Z,98086.44
2023-09-23T14:42:46.471Z,98084.47
2023-09-23T14:45:16.244Z,98088.31
2023-09-23T14:47:47.324Z,98095.28
2023-09-23T14:50:15.663Z,98086.94
2023-09-23T14:52:45.721Z,98100.81
2023-09-23T14:55:14.115Z,98102.47
2023-09-23T14:57:44.558Z,98112.66
2023-09-23T15:00:15.354Z,98105.22
2023-09-23T15:02:43.896Z,98105.66
2023-09-23T15:05:13.728Z,98111.78
2023-09-23T15:07:42.479Z,98100.06
2023-09-23T15:10:12.250Z,98105.66
2023-09-23T15:12:41.309Z,98119.59
2023-09-23T15:15:10.423Z,98121.34
2023-09-23T15:17:40.958Z,98119.31
2023-09-23T15:20:12.633Z,98122.06
2023-09-23T15:22:42.592Z,98115.47
2023-09-23T15:25:12.726Z,98123.38
2023-09-23T15:27:41.599Z,98126.47
2023-09-23T15:30:11.350Z,98138.88
2023-09-23T15:32:40.555Z,98145.25
2023-09-23T15:35:12.830Z,98149.22
2023-09-23T15:37:42.714Z,98153.97
2023-09-23T15:40:12.443Z,98152.88
2023-09-23T15:42:40.964Z,98156.69
2023-09-23T15:45:10.310Z,98154.91
2023-09-23T15:47:40.866Z,98153.63
2023-09-23T15:50:10.452Z,98167.38
2023-09-23T15:52:39.762Z,98178.25
2023-09-23T15:55:12.166Z,98189.75
2023-09-23T15:57:40.971Z,98193.94
2023-09-23T16:00:10.820Z,98195.31
2023-09-23T16:02:40.039Z,98197.88
2023-09-23T16:05:10.143Z,98206.41
2023-09-23T16:07:38.887Z,98212.00
2023-09-23T16:10:11.504Z,98207.59
2023-09-23T16:12:40.293Z,98198.47
2023-09-23T16:15:09.449Z,98207.38
2023-09-23T16:17:38.075Z,98215.91
2023-09-23T16:20:07.526Z,98214.84
2023-09-23T16:22:36.097Z,98207.84
2023-09-23T16:25:04.570Z,98206.28
2023-09-23T16:27:35.711Z,98211.34
2023-09-23T16:30:04.327Z,98207.09
2023-09-23T16:32:32.756Z,98218.63
2023-09-23T16:35:00.971Z,98219.25
2023-09-23T16:37:29.594Z,98229.41
2023-09-23T16:39:57.942Z,98236.34
2023-09-23T16:42:26.418Z,98235.22
2023-09-23T16:44:56.090Z,98237.69
2023-09-23T16:47:24.818Z,98243.72
2023-09-23T16:49:53.232Z,98242.03
2023-09-23T16:52:21.737Z,98237.09
2023-09-23T16:54:50.727Z,98240.97
2023-09-23T16:57:20.817Z,98245.28
2023-09-23T16:59:49.235Z,98249.19
2023-09-23T17:02:19.875Z,98247.41
2023-09-23T17:04:48.694Z,98257.59
2023-09-23T17:07:17.432Z,98264.72
2023-09-23T17:09:45.702Z,98266.25
2023-09-23T17:12:16.426Z,98274.03
2023-09-23T17:14:44.890Z,98269.97
2023-09-23T17:17:13.751Z,98267.25
2023-09-23T17:19:43.708Z,98253.19
2023-09-23T17:22:12.368Z,98268.78
2023-09-23T17:24:40.589Z,98272.88
2023-09-23T17:27:09.169Z,98285.88
2023-09-23T17:29:37.740Z,98279.38
2023-09-23T17:32:06.820Z,98293.16
2023-09-23T17:34:35.128Z,98296.47
2023-09-23T17:37:05.299Z,98304.78
2023-09-23T17:39:34.160Z,98306.34
2023-09-23T17:42:02.789Z,98314.09
2023-09-23T17:44:31.205Z,98321.91
2023-09-23T17:46:59.926Z,98315.81
2023-09-23T17:49:29.890Z,98310.69
2023-09-23T17:51:58.609Z,98327.09
2023-09-23T17:54:29.411Z,98329.00
2023-09-23T17:56:58.047Z,98330.72
2023-09-23T17:59:26.461Z,98319.47
2023-09-23T18:01:55.197Z,98319.47
2023-09-23T18:04:23.869Z,98329.44
2023-09-23T18:06:52.544Z,98329.88
2023-09-23T18:09:20.892Z,98343.94
2023-09-23T18:11:52.389Z,98342.69
2023-09-23T18:14:20.434Z,98342.94
2023-09-23T18:16:49.067Z,98343.72
2023-09-23T18:19:17.628Z,98344.00
2023-09-23T18:21:46.350Z,98348.47
2023-09-23T18:24:14.935Z,98351.34
2023-09-23T18:26:43.764Z,98363.84
2023-09-23T18:29:13.409Z,98360.72
2023-09-23T18:31:45.152Z,98363.94
2023-09-23T18:34:13.508Z,98364.22
2023-09-23T18:36:42.127Z,98379.59
2023-09-23T18:39:10.368Z,98381.97
2023-09-23T18:41:39.092Z,98394.88
2023-09-23T18:44:07.872Z,98397.22
2023-09-23T18:46:37.938Z,98404.84
2023-09-23T18:49:06.430Z,98403.34
2023-09-23T18:51:35.846Z,98411.91
2023-09-23T18:54:04.718Z,98398.91
2023-09-23T18:56:33.568Z,98402.69
2023-09-23T18:59:01.820Z,98403.94
2023-09-23T19:01:30.789Z,98403.91
2023-09-23T19:04:00.555Z,98407.19
2023-09-23T19:06:29.334Z,98402.53
2023-09-23T19:08:58.255Z,98411.84
2023-09-23T19:11:26.917Z,98419.97
2023-09-23T19:13:55.794Z,98413.72
2023-09-23T19:16:25.179Z,98415.19
2023-09-23T19:18:53.617Z,98411.44
2023-09-23T19:21:23.532Z,98410.59
2023-09-23T19:23:51.826Z,98419.28
2023-09-23T19:26:20.593Z,98413.81
2023-09-23T19:28:48.990Z,98419.63
2023-09-23T19:31:20.043Z,98425.72
2023-09-23T19:33:50.796Z,98415.22
2023-09-23T19:36:19.536Z,98424.69
2023-09-23T19:38:50.374Z,98420.09
2023-09-23T19:41:19.514Z,98422.44
2023-09-23T19:43:52.027Z,98422.91
2023-09-23T19:46:23.140Z,98425.59
2023-09-23T19:48:51.633Z,98426.38
2023-09-23T19:51:25.938Z,98418.72
2023-09-23T19:53:55.804Z,98418.53
2023-09-23T19:56:24.462Z,98408.56
2023-09-23T19:58:52.860Z,98411.88
2023-09-23T20:01:23.853Z,98423.88
2023-09-23T20:03:53.133Z,98421.47
2023-09-23T20:06:22.096Z,98423.47
2023-09-23T20:08:50.530Z,98426.78
2023-09-23T20:11:21.246Z,98421.41
2023-09-23T20:13:51.019Z,98418.25
2023-09-23T20:16:20.575Z,98422.22
2023-09-23T20:18:49.146Z,98424.53
2023-09-23T20:21:17.891Z,98422.22
2023-09-23T20:23:46.278Z,98423.81
2023-09-23T20:26:15.233Z,98420.03
2023-09-23T20:28:44.967Z,98432.34
2023-09-23T20:31:16.705Z,98422.84
2023-09-23T20:33:45.375Z,98418.31
2023-09-23T20:36:14.496Z,98414.41
2023-09-23T20:38:43.165Z,98414.09
2023-09-23T20:41:11.952Z,98424.16
2023-09-23T20:43:40.621Z,98416.19
2023-09-23T20:46:12.606Z,98418.22
2023-09-23T20:48:40.967Z,98420.72
2023-09-23T20:51:10.380Z,98426.78
2023-09-23T20:53:39.691Z,98436.09
2023-09-23T20:56:09.835Z,98435.16
2023-09-23T20:58:38.435Z,98439.38
2023-09-23T21:01:07.099Z,98455.91
2023-09-23T21:03:36.964Z,98460.59
2023-09-23T21:06:06.939Z,98464.34
2023-09-23T21:08:35.195Z,98467.97
2023-09-23T21:11:03.671Z,98472.00
2023-09-23T21:13:32.058Z,98463.13
2023-09-23T21:16:01.642Z,98471.91
2023-09-23T21:18:30.384Z,98479.25
2023-09-23T21:21:00.523Z,98488.72
2023-09-23T21:23:29.096Z,98491.28
2023-09-23T21:25:57.791Z,98507.00
2023-09-23T21:28:26.072Z,98503.72
2023-09-23T21:30:54.759Z,98508.59
2023-09-23T21:33:23.272Z,98510.63
2023-09-23T21:35:51.946Z,98515.91
2023-09-23T21:38:21.975Z,98512.13
2023-09-23T21:40:50.611Z,98510.59
2023-09-23T21:43:21.659Z,98517.06
2023-09-23T21:45:51.517Z,98525.88
2023-09-23T21:48:20.208Z,98525.88
2023-09-23T21:50:56.676Z,98525.53
2023-09-23T21:53:26.474Z,98531.34
2023-09-23T21:55:58.089Z,98520.00
2023-09-23T21:58:26.125Z,98524.22
2023-09-23T22:00:58.085Z,98517.84
2023-09-23T22:03:26.704Z,98528.75
2023-09-23T22:05:55.923Z,98523.91
2023-09-23T22:08:24.635Z,98531.16
2023-09-23T22:10:55.750Z,98529.81
2023-09-23T22:13:24.456Z,98539.63
2023-09-23T22:15:53.322Z,98535.59
2023-09-23T22:18:21.643Z,98535.19
2023-09-23T22:20:52.448Z,98531.16
2023-09-23T22:23:21.685Z,98531.13
2023-09-23T22:25:50.753Z,98528.31
2023-09-23T22:28:20.275Z,98528.56
2023-09-23T22:30:52.084Z,98518.66
2023-09-23T22:33:20.811Z,98523.53
2023-09-23T22:35:49.653Z,98533.16
2023-09-23T22:38:18.517Z,98530.78
2023-09-23T22:40:47.860Z,98533.97
2023-09-23T22:43:16.133Z,98543.66
2023-09-23T22:45:46.079Z,98543.94
2023-09-23T22:48:14.680Z,98546.88
2023-09-23T22:50:45.622Z,98537.22
2023-09-23T22:53:14.364Z,98526.34
2023-09-23T22:55:42.875Z,98517.09
2023-09-23T22:58:11.215Z,98526.75
2023-09-23T23:00:40.447Z,98528.38
2023-09-23T23:03:11.577Z,98535.63
2023-09-23T23:05:41.030Z,98536.81
2023-09-23T23:08:10.004Z,98531.16
2023-09-23T23:10:38.668Z,98535.16
2023-09-23T23:13:10.837Z,98539.56
2023-09-23T23:15:40.474Z,98529.16
2023-09-23T23:18:10.897Z,98529.56
2023-09-23T23:20:40.010Z,98534.75
2023-09-23T23:23:08.515Z,98542.78
2023-09-23T23:25:38.310Z,98538.41
2023-09-23T23:28:08.265Z,98535.22
2023-09-23T23:30:38.385Z,98542.03
2023-09-23T23:33:07.425Z,98549.22
2023-09-23T23:35:39.476Z,98538.03
2023-09-23T23:38:08.148Z,98542.78
2023-09-23T23:40:36.814Z,98548.78
2023-09-23T23:43:06.607Z,98542.38
2023-09-23T23:45:35.571Z,98547.59
2023-09-23T23:48:04.161Z,98550.03
2023-09-23T23:50:32.926Z,98557.66
2023-09-23T23:53:04.028Z,98567.81
2023-09-23T23:55:32.532Z,98563.59
2023-09-23T23:58:00.835Z,98571.75
